CDT,Max TemperatureF,Mean TemperatureF,Min TemperatureF,Max Dew PointF,MeanDew PointF,Min DewpointF,Max Humidity, Mean Humidity, Min Humidity, Max Sea Level PressureIn, Mean Sea Level PressureIn, Min Sea Level PressureIn, Max VisibilityMiles, Mean VisibilityMiles, Min VisibilityMiles, Max Wind SpeedMPH, Mean Wind SpeedMPH, Max Gust SpeedMPH,PrecipitationIn, CloudCover, Events, WindDirDegrees
2012-10-1,69,58,48,54,47,43,94,69,40,30.16,30.11,30.03,10,10,10,30,10,39,0.00,0,,348
2012-10-2,75,58,41,46,42,37,87,61,29,30.17,30.06,29.93,10,10,10,14,7,17,0.00,0,,226
2012-10-3,82,66,51,50,48,45,82,56,26,29.95,29.91,29.86,10,8,1,17,11,23,0.00,0,,179
2012-10-4,62,53,44,52,36,30,72,56,36,30.32,30.21,29.94,10,10,4,41,17,56,0.00,3,,32
2012-10-5,55,48,41,37,35,28,81,63,47,30.25,30.19,30.14,10,10,3,25,8,32,0.00,4,,76
2012-10-6,42,40,37,32,30,28,81,70,57,30.32,30.26,30.22,10,10,10,18,12,23,0.00,7,,70
2012-10-7,46,39,32,32,30,27,93,75,53,30.32,30.24,30.15,10,10,10,14,7,17,0.00,4,,167
2012-10-8,68,50,32,37,32,28,87,58,28,30.17,30.03,29.90,10,10,10,25,12,31,0.00,0,,209
2012-10-9,80,62,44,41,32,18,71,44,10,30.21,29.97,29.86,10,10,7,20,12,25,0.00,0,,350
2012-10-10,62,48,33,45,37,32,93,69,37,30.30,30.19,30.09,10,8,0,16,8,23,0.00,0,,142
2012-10-11,82,63,44,55,50,43,94,65,32,30.12,30.07,30.02,10,9,1,26,14,31,0.00,0,,205
2012-10-12,68,56,44,59,44,32,94,71,55,30.30,30.13,29.93,10,10,10,26,10,34,0.02,2,Rain,60
2012-10-13,69,60,50,61,45,28,100,62,21,30.01,29.91,29.82,10,9,2,29,17,41,0.30,1,Rain,246
2012-10-14,71,58,44,41,38,34,81,51,25,30.27,30.18,30.02,10,10,10,18,11,22,0.00,0,,314
2012-10-15,80,63,46,41,36,30,76,43,16,30.21,30.04,29.88,10,10,10,28,13,38,0.00,0,,210
2012-10-16,78,61,44,37,35,32,71,38,18,29.87,29.75,29.56,10,10,10,22,13,31,0.00,0,,240
2012-10-17,64,54,44,36,29,23,62,36,24,29.95,29.78,29.55,10,10,10,23,13,36,0.00,0,,360
2012-10-18,62,47,32,28,24,19,80,42,20,30.14,30.06,29.95,10,10,10,10,4,,0.00,0,,28
2012-10-19,73,53,33,34,29,19,75,43,22,30.11,30.00,29.85,10,10,1,15,6,21,0.00,0,,214
2012-10-20,80,61,42,36,31,28,70,39,15,29.85,29.79,29.75,10,10,10,14,9,16,0.00,0,,151
2012-10-21,84,65,46,32,28,23,50,27,13,29.83,29.76,29.73,10,10,10,24,12,32,0.00,0,,235
2012-10-22,80,66,51,43,34,27,58,35,15,29.93,29.86,29.82,10,10,10,14,9,17,0.00,0,,233
2012-10-23,86,70,55,34,31,27,41,27,12,29.91,29.84,29.80,10,10,10,25,16,36,0.00,0,,222
2012-10-24,86,68,51,48,37,32,54,35,14,29.87,29.79,29.67,10,10,7,29,14,34,0.04,0,,200
2012-10-25,64,48,33,45,31,27,87,64,26,30.28,30.08,29.67,10,10,5,36,17,46,0.00,3,,15
2012-10-26,42,35,28,27,25,21,80,66,42,30.45,30.37,30.29,10,10,10,13,6,20,0.00,4,,45
2012-10-27,55,39,23,23,20,19,86,55,25,30.35,30.21,30.09,10,10,10,17,7,25,0.00,0,,168
2012-10-28,60,44,28,23,21,18,69,44,19,30.23,30.16,30.08,10,10,10,23,11,30,0.00,0,,189
2012-10-29,69,50,32,32,28,23,75,48,23,30.18,30.13,30.07,10,10,10,14,10,18,0.00,0,,174
2012-10-30,77,56,35,32,29,27,81,41,17,30.11,30.07,30.03,10,10,10,9,7,,0.00,0,,335
2012-10-31,77,59,41,36,30,27,70,39,18,30.14,30.10,30.06,10,10,1,16,6,21,0.00,0,,229